Time;durP1;ratioP1;P1;durP2;ratioP2;P2;SDS_P1;SDS_P2;PMS_P1;PMS_P2;Temp;Humidity;BMP_temperature;BMP_pressure;BME280_temperature;BME280_humidity;BME280_pressure;Samples;Min_cycle;Max_cycle;Signal;HPM_P1;HPM_P2
2021/11/15 00:00:25;;;;;;;43.90;23.63;;;;;;;3.85;100.00;96273.50;1037679;28;20021;-73
2021/11/15 00:00:58;;;;;;;39.55;22.70;;;;;;;3.85;100.00;96270.13;1026801;28;20019;-74
2021/11/15 00:01:30;;;;;;;41.85;22.80;;;;;;;3.86;100.00;96271.72;1030711;28;20018;-73
2021/11/15 00:02:07;;;;;;;42.63;22.58;;;;;;;3.87;100.00;96275.91;1031318;28;20284;-72
2021/11/15 00:02:39;;;;;;;41.33;23.17;;;;;;;3.79;100.00;96261.38;1030844;28;20756;-73
2021/11/15 00:03:13;;;;;;;44.53;23.73;;;;;;;3.84;100.00;96271.91;1029747;28;20317;-73
2021/11/15 00:03:44;;;;;;;41.90;24.10;;;;;;;3.82;100.00;96267.94;1033694;28;20264;-72
2021/11/15 00:04:15;;;;;;;46.03;24.95;;;;;;;3.76;100.00;96267.78;1031798;28;20253;-73
2021/11/15 00:04:46;;;;;;;44.88;25.05;;;;;;;3.76;100.00;96259.97;1027663;28;20022;-74
2021/11/15 00:05:16;;;;;;;42.53;24.88;;;;;;;3.78;100.00;96257.16;1030737;28;20264;-72
2021/11/15 00:05:46;;;;;;;43.13;24.25;;;;;;;3.83;100.00;96265.16;1034571;28;20022;-74
2021/11/15 00:06:17;;;;;;;45.83;24.63;;;;;;;3.85;100.00;96263.13;1034942;28;20404;-71
2021/11/15 00:06:47;;;;;;;45.15;24.88;;;;;;;3.80;100.00;96260.38;1029524;28;20081;-74
2021/11/15 00:07:18;;;;;;;46.45;24.83;;;;;;;3.85;100.00;96264.94;1030606;28;20026;-73
2021/11/15 00:07:48;;;;;;;41.08;23.15;;;;;;;3.82;100.00;96263.53;1026757;28;20015;-73
2021/11/15 00:08:19;;;;;;;45.28;24.35;;;;;;;3.84;100.00;96256.34;1026560;28;20015;-71
2021/11/15 00:08:49;;;;;;;45.70;23.10;;;;;;;3.75;100.00;96249.78;1026531;28;20019;-73
2021/11/15 00:09:20;;;;;;;40.60;22.70;;;;;;;3.83;100.00;96259.94;1026666;28;20029;-74
2021/11/15 00:09:50;;;;;;;42.50;23.95;;;;;;;3.82;100.00;96260.16;1026592;28;20436;-73
2021/11/15 00:10:21;;;;;;;45.63;24.08;;;;;;;3.84;100.00;96252.97;1026597;28;20069;-73
2021/11/15 00:10:51;;;;;;;40.53;22.98;;;;;;;3.76;100.00;96248.81;1022629;28;20545;-72
2021/11/15 00:11:22;;;;;;;45.78;25.17;;;;;;;3.83;100.00;96262.56;1030473;28;20027;-73
2021/11/15 00:11:52;;;;;;;44.15;23.92;;;;;;;3.76;100.00;96252.19;1030563;28;20018;-73
2021/11/15 00:12:23;;;;;;;45.42;23.88;;;;;;;3.85;100.00;96263.13;1026605;28;20015;-73
2021/11/15 00:12:53;;;;;;;41.95;23.70;;;;;;;3.80;100.00;96255.19;1026089;28;20054;-73
2021/11/15 00:13:24;;;;;;;44.65;23.95;;;;;;;3.88;100.00;96257.53;1021890;29;20023;-73
2021/11/15 00:13:54;;;;;;;44.65;24.50;;;;;;;3.82;100.00;96253.16;1026143;28;20019;-72
2021/11/15 00:14:25;;;;;;;42.80;24.05;;;;;;;3.90;100.00;96262.53;1026428;28;20023;-71
2021/11/15 00:14:55;;;;;;;43.83;24.10;;;;;;;3.84;100.00;96245.97;1026720;28;20271;-73
2021/11/15 00:15:28;;;;;;;41.78;24.17;;;;;;;3.89;100.00;96263.50;1030717;28;20015;-71
2021/11/15 00:15:59;;;;;;;42.13;24.55;;;;;;;3.89;100.00;96258.31;1031038;28;20022;-72
2021/11/15 00:16:30;;;;;;;43.15;23.17;;;;;;;3.90;100.00;96254.72;1026332;28;20788;-72
2021/11/15 00:17:00;;;;;;;42.65;23.38;;;;;;;3.88;100.00;96254.13;1027340;28;20027;-74
2021/11/15 00:17:31;;;;;;;41.67;24.27;;;;;;;3.87;100.00;96262.94;1027527;28;20517;-74
2021/11/15 00:18:01;;;;;;;44.15;26.23;;;;;;;3.86;100.00;96262.13;1034899;28;20030;-72
2021/11/15 00:18:31;;;;;;;43.72;23.35;;;;;;;3.80;100.00;96247.38;1034546;28;20247;-73
2021/11/15 00:19:02;;;;;;;42.75;24.85;;;;;;;3.86;100.00;96256.16;1034802;28;20213;-73
2021/11/15 00:19:33;;;;;;;41.10;24.17;;;;;;;3.78;100.00;96247.56;1034682;28;20014;-74
2021/11/15 00:20:04;;;;;;;45.97;26.02;;;;;;;3.83;100.00;96248.78;1030772;28;20130;-73
2021/11/15 00:20:35;;;;;;;46.70;26.52;;;;;;;3.83;100.00;96249.56;1031000;28;20381;-72
2021/11/15 00:21:06;;;;;;;41.53;24.67;;;;;;;3.83;100.00;96251.38;1038720;28;20703;-71
2021/11/15 00:21:36;;;;;;;45.17;23.92;;;;;;;3.78;100.00;96241.59;1038525;28;20264;-71
2021/11/15 00:22:07;;;;;;;43.47;24.83;;;;;;;3.83;100.00;96248.78;1042987;28;20234;-72
2021/11/15 00:22:37;;;;;;;46.70;24.08;;;;;;;3.83;100.00;96249.56;1038511;28;20013;-71
2021/11/15 00:23:08;;;;;;;43.63;23.90;;;;;;;3.77;100.00;96245.19;1034642;28;20145;-72
2021/11/15 00:23:38;;;;;;;40.67;23.15;;;;;;;3.83;100.00;96251.38;1022424;29;20027;-71
2021/11/15 00:24:09;;;;;;;45.35;25.00;;;;;;;3.83;100.00;96254.75;1022310;29;20019;-73
2021/11/15 00:24:39;;;;;;;49.70;24.67;;;;;;;3.87;100.00;96255.16;1026451;28;20019;-73
2021/11/15 00:25:10;;;;;;;45.72;24.52;;;;;;;3.78;100.00;96241.59;1026803;28;20031;-72
2021/11/15 00:25:41;;;;;;;45.08;24.90;;;;;;;3.85;100.00;96252.75;1034871;28;20018;-72
2021/11/15 00:26:11;;;;;;;45.50;24.65;;;;;;;3.88;100.00;96257.53;1030730;28;20628;-72
2021/11/15 00:26:42;;;;;;;39.60;22.90;;;;;;;3.80;100.00;96249.97;1034593;28;20018;-73
2021/11/15 00:27:12;;;;;;;39.88;23.83;;;;;;;3.81;100.00;96240.38;1034618;28;20045;-73
2021/11/15 00:27:43;;;;;;;45.65;24.30;;;;;;;3.80;100.00;96244.78;1032084;28;20159;-72
2021/11/15 00:28:13;;;;;;;48.65;25.02;;;;;;;3.83;100.00;96249.56;1028876;28;20026;-74
2021/11/15 00:28:43;;;;;;;39.55;22.55;;;;;;;3.79;100.00;96245.81;1030528;28;20489;-73
2021/11/15 00:29:14;;;;;;;45.33;23.65;;;;;;;3.77;100.00;96246.00;1026817;28;20026;-73
2021/11/15 00:29:44;;;;;;;43.50;23.17;;;;;;;3.86;100.00;96259.53;1030468;28;20418;-71
2021/11/15 00:30:15;;;;;;;39.65;22.05;;;;;;;3.78;100.00;96232.00;1034829;28;20087;-74
2021/11/15 00:30:45;;;;;;;38.22;22.40;;;;;;;3.88;100.00;96252.31;1026426;28;20050;-70
2021/11/15 00:31:16;;;;;;;43.38;22.77;;;;;;;3.85;100.00;96251.94;1021541;28;20022;-72
2021/11/15 00:31:46;;;;;;;39.20;22.83;;;;;;;3.86;100.00;96253.56;1030442;28;20018;-72
2021/11/15 00:32:17;;;;;;;40.80;22.08;;;;;;;3.86;100.00;96250.97;1030812;28;20398;-72
2021/11/15 00:32:47;;;;;;;39.72;22.27;;;;;;;3.85;100.00;96251.94;1031972;28;20526;-73
2021/11/15 00:33:17;;;;;;;40.97;21.73;;;;;;;3.82;100.00;96253.16;1030740;28;20019;-73
2021/11/15 00:33:48;;;;;;;42.38;22.45;;;;;;;3.78;100.00;96247.56;1034151;28;20104;-71
2021/11/15 00:34:19;;;;;;;37.40;21.38;;;;;;;3.83;100.00;96259.94;1026535;28;20320;-71
2021/11/15 00:34:49;;;;;;;35.90;21.38;;;;;;;3.85;100.00;96257.94;1026878;28;20084;-74
2021/11/15 00:35:20;;;;;;;37.45;21.85;;;;;;;3.77;100.00;96246.00;1030789;28;21103;-73
2021/11/15 00:35:50;;;;;;;36.13;20.67;;;;;;;3.78;100.00;96247.56;1030739;28;20078;-73
2021/11/15 00:36:21;;;;;;;39.25;22.70;;;;;;;3.80;100.00;96256.97;1034715;28;20397;-71
2021/11/15 00:36:51;;;;;;;39.67;20.73;;;;;;;3.81;100.00;96256.75;1030708;28;20018;-72
2021/11/15 00:37:22;;;;;;;37.83;20.77;;;;;;;3.79;100.00;96251.00;1030717;28;20050;-72
2021/11/15 00:37:52;;;;;;;37.13;20.52;;;;;;;3.81;100.00;96256.75;1039934;28;20560;-73
2021/11/15 00:38:23;;;;;;;34.33;19.83;;;;;;;3.76;100.00;96251.41;1042991;28;20181;-72
2021/11/15 00:38:53;;;;;;;33.20;19.40;;;;;;;3.75;100.00;96252.38;1034752;28;20022;-72
2021/11/15 00:39:23;;;;;;;35.08;20.17;;;;;;;3.81;100.00;96261.16;1034461;28;20049;-72
2021/11/15 00:39:54;;;;;;;36.60;20.05;;;;;;;3.68;100.00;96242.03;1030513;28;20018;-74
2021/11/15 00:40:25;;;;;;;38.58;21.42;;;;;;;3.80;100.00;96262.97;1018592;29;20028;-72
2021/11/15 00:40:55;;;;;;;38.60;20.63;;;;;;;3.81;100.00;96261.94;1022695;29;20474;-71
2021/11/15 00:41:25;;;;;;;36.78;20.08;;;;;;;3.81;100.00;96256.75;1028961;28;20030;-72
2021/11/15 00:41:56;;;;;;;38.47;20.58;;;;;;;3.80;100.00;96264.75;1029050;28;20687;-72
2021/11/15 00:42:26;;;;;;;35.50;18.83;;;;;;;3.77;100.00;96255.59;1030623;28;20030;-72
2021/11/15 00:42:57;;;;;;;36.13;19.40;;;;;;;3.76;100.00;96251.41;1030717;28;20383;-73
2021/11/15 00:43:27;;;;;;;38.15;21.27;;;;;;;3.81;100.00;96263.75;1030037;28;20026;-74
2021/11/15 00:43:58;;;;;;;32.28;19.55;;;;;;;3.80;100.00;96257.78;1029684;28;20025;-71
2021/11/15 00:44:28;;;;;;;35.42;19.35;;;;;;;3.73;100.00;96251.81;1034214;28;20033;-73
2021/11/15 00:44:59;;;;;;;34.38;19.23;;;;;;;3.81;100.00;96261.16;1038237;28;20033;-73
2021/11/15 00:45:29;;;;;;;36.58;19.73;;;;;;;3.83;100.00;96261.75;1039097;28;20025;-73
2021/11/15 00:46:00;;;;;;;33.10;18.88;;;;;;;3.70;100.00;96247.03;1031183;28;20022;-72
2021/11/15 00:46:30;;;;;;;34.92;19.60;;;;;;;3.77;100.00;96258.19;1030878;28;20041;-71
2021/11/15 00:47:01;;;;;;;35.15;19.85;;;;;;;3.78;100.00;96263.16;1033470;28;20517;-73
2021/11/15 00:47:32;;;;;;;37.10;20.13;;;;;;;3.77;100.00;96258.97;1031152;28;20110;-72
2021/11/15 00:48:02;;;;;;;36.83;20.10;;;;;;;3.78;100.00;96259.75;1039666;28;20268;-72
2021/11/15 00:48:33;;;;;;;35.60;19.65;;;;;;;3.78;100.00;96263.16;1039191;28;20025;-73
2021/11/15 00:49:03;;;;;;;35.60;20.10;;;;;;;3.77;100.00;96265.97;1039452;28;20566;-71
2021/11/15 00:49:34;;;;;;;34.33;18.70;;;;;;;3.71;100.00;96256.41;1031154;28;20022;-74
2021/11/15 00:50:05;;;;;;;35.70;19.17;;;;;;;3.79;100.00;96269.16;1027345;28;20109;-73
2021/11/15 00:50:36;;;;;;;40.25;19.13;;;;;;;3.78;100.00;96272.75;1027326;28;20351;-73
2021/11/15 00:51:07;;;;;;;41.67;19.88;;;;;;;3.75;100.00;96267.97;1023889;28;20281;-72
2021/11/15 00:51:37;;;;;;;38.47;20.52;;;;;;;3.76;100.00;96269.56;1027390;28;20019;-73
2021/11/15 00:52:08;;;;;;;37.25;21.08;;;;;;;3.66;100.00;96248.44;1036595;28;20025;-74
2021/11/15 00:52:38;;;;;;;35.22;19.40;;;;;;;3.66;100.00;96248.44;1031264;28;20025;-73
2021/11/15 00:53:08;;;;;;;37.20;20.20;;;;;;;3.77;100.00;96268.56;1031329;28;20393;-73
2021/11/15 00:53:39;;;;;;;38.15;19.63;;;;;;;3.74;100.00;96263.78;1027801;28;20203;-72
2021/11/15 00:54:09;;;;;;;41.00;19.92;;;;;;;3.74;100.00;96261.97;1031119;28;20030;-73
2021/11/15 00:54:40;;;;;;;36.13;20.05;;;;;;;3.75;100.00;96273.16;1023104;29;20027;-73
2021/11/15 00:55:10;;;;;;;32.63;18.17;;;;;;;3.71;100.00;96266.78;1023173;29;20031;-71
2021/11/15 00:55:41;;;;;;;36.25;18.80;;;;;;;3.74;100.00;96269.75;1026995;28;20023;-73
2021/11/15 00:56:11;;;;;;;32.33;18.65;;;;;;;3.76;100.00;96265.19;1027200;28;20030;-73
2021/11/15 00:56:41;;;;;;;32.92;18.70;;;;;;;3.74;100.00;96266.38;1031465;28;20053;-73
2021/11/15 00:57:12;;;;;;;32.95;19.15;;;;;;;3.77;100.00;96266.75;1036837;28;20052;-72
2021/11/15 00:57:42;;;;;;;37.00;19.42;;;;;;;3.76;100.00;96270.38;1039375;28;20017;-72
2021/11/15 00:58:13;;;;;;;40.83;19.98;;;;;;;3.68;100.00;96260.19;1039296;28;20029;-73
2021/11/15 00:58:43;;;;;;;36.97;20.30;;;;;;;3.75;100.00;96268.75;1035036;28;20108;-71
2021/11/15 00:59:14;;;;;;;36.45;19.52;;;;;;;3.73;100.00;96265.59;1031374;28;20720;-73
2021/11/15 00:59:44;;;;;;;36.92;18.55;;;;;;;3.70;100.00;96255.59;1027307;28;20026;-72
2021/11/15 01:00:18;;;;;;;38.80;19.35;;;;;;;3.76;100.00;96272.16;1031255;28;20077;-73
2021/11/15 01:00:49;;;;;;;36.75;18.85;;;;;;;3.75;100.00;96263.56;1023639;28;20027;-73
2021/11/15 01:01:19;;;;;;;37.65;19.70;;;;;;;3.73;100.00;96264.78;1023795;28;20551;-71
2021/11/15 01:01:50;;;;;;;35.60;19.38;;;;;;;3.78;100.00;96270.94;1023074;28;20027;-73
2021/11/15 01:02:22;;;;;;;37.35;19.10;;;;;;;3.80;100.00;96270.75;1027020;28;20070;-72
2021/11/15 01:02:53;;;;;;;34.38;19.45;;;;;;;3.78;100.00;96273.53;1031449;28;20026;-72
2021/11/15 01:03:24;;;;;;;34.42;19.05;;;;;;;3.78;100.00;96267.53;1031384;28;20273;-71
2021/11/15 01:03:55;;;;;;;42.42;19.65;;;;;;;3.75;100.00;96273.16;1031032;28;20036;-74
2021/11/15 01:04:26;;;;;;;33.60;19.15;;;;;;;3.77;100.00;96265.97;1031141;28;20264;-73
2021/11/15 01:04:56;;;;;;;37.05;19.13;;;;;;;3.76;100.00;96269.56;1027457;28;20030;-73
2021/11/15 01:05:27;;;;;;;40.85;20.98;;;;;;;3.74;100.00;96276.75;1027011;28;20561;-74
2021/11/15 01:05:59;;;;;;;38.25;21.80;;;;;;;3.66;100.00;96264.03;1031532;28;20030;-73
2021/11/15 01:06:30;;;;;;;36.60;20.88;;;;;;;3.70;100.00;96265.19;1031623;28;20293;-72
2021/11/15 01:07:01;;;;;;;42.83;21.98;;;;;;;3.74;100.00;96274.16;1031659;28;20273;-74
2021/11/15 01:07:32;;;;;;;39.67;20.55;;;;;;;3.74;100.00;96274.94;1038726;28;20224;-73
2021/11/15 01:08:02;;;;;;;35.47;19.67;;;;;;;3.74;100.00;96277.53;1035273;28;20764;-72
2021/11/15 01:08:33;;;;;;;40.70;20.55;;;;;;;3.73;100.00;96278.56;1031330;28;20433;-73
2021/11/15 01:09:03;;;;;;;44.90;23.13;;;;;;;3.73;100.00;96280.38;1037192;28;20041;-72
2021/11/15 01:09:34;;;;;;;41.30;21.95;;;;;;;3.70;100.00;96273.78;1031097;28;20084;-73
2021/11/15 01:10:05;;;;;;;40.45;21.58;;;;;;;3.70;100.00;96278.97;1023095;28;20039;-73
2021/11/15 01:10:35;;;;;;;39.58;21.48;;;;;;;3.68;100.00;96275.78;1022793;28;20023;-71
2021/11/15 01:11:06;;;;;;;36.65;19.45;;;;;;;3.64;100.00;96271.22;1027046;28;20273;-73
2021/11/15 01:11:37;;;;;;;38.00;19.70;;;;;;;3.68;100.00;96282.75;1027296;28;20094;-70
2021/11/15 01:12:07;;;;;;;36.90;19.27;;;;;;;3.57;100.00;96260.84;1023226;28;20129;-73
2021/11/15 01:12:38;;;;;;;35.58;19.85;;;;;;;3.65;100.00;96268.38;1026926;28;20026;-70
2021/11/15 01:13:08;;;;;;;37.63;20.55;;;;;;;3.65;100.00;96273.59;1031291;28;20096;-72
2021/11/15 01:13:39;;;;;;;37.78;19.92;;;;;;;3.52;100.00;96263.25;1030786;28;20489;-71
2021/11/15 01:14:09;;;;;;;36.45;19.65;;;;;;;3.62;100.00;96284.41;1031012;28;20432;-74
2021/11/15 01:14:40;;;;;;;35.45;19.92;;;;;;;3.59;100.00;96269.25;1035189;28;20030;-72
2021/11/15 01:15:13;;;;;;;35.42;18.98;;;;;;;3.52;100.00;96258.06;1035041;28;20030;-72
2021/11/15 01:15:43;;;;;;;33.83;18.73;;;;;;;3.61;100.00;96271.63;1026875;28;20034;-72
2021/11/15 01:16:14;;;;;;;35.65;20.48;;;;;;;3.55;100.00;96262.84;1027341;28;20785;-72
2021/11/15 01:16:45;;;;;;;35.72;19.45;;;;;;;3.59;100.00;96273.59;1031052;28;20022;-72
2021/11/15 01:17:15;;;;;;;38.80;20.88;;;;;;;3.59;100.00;96266.63;1031293;28;20025;-74
2021/11/15 01:17:46;;;;;;;35.78;19.20;;;;;;;3.58;100.00;96279.81;1035104;28;20453;-72
2021/11/15 01:18:17;;;;;;;36.67;19.80;;;;;;;3.60;100.00;96272.63;1031279;28;20029;-71
2021/11/15 01:18:49;;;;;;;36.97;20.60;;;;;;;3.60;100.00;96270.03;1027009;28;20022;-74
2021/11/15 01:19:20;;;;;;;37.78;20.20;;;;;;;3.59;100.00;96269.25;1026197;28;20019;-74
2021/11/15 01:19:50;;;;;;;36.13;19.58;;;;;;;3.54;100.00;96267.25;1027476;28;20293;-72
2021/11/15 01:20:24;;;;;;;37.08;19.88;;;;;;;3.58;100.00;96264.25;1031584;28;20022;-73
2021/11/15 01:20:55;;;;;;;37.70;20.85;;;;;;;3.65;100.00;96272.78;1031690;28;20030;-73
2021/11/15 01:21:28;;;;;;;39.40;20.25;;;;;;;3.62;100.00;96271.44;1031086;28;20331;-72
2021/11/15 01:21:58;;;;;;;37.10;20.50;;;;;;;3.60;100.00;96270.81;1035172;28;20022;-73
2021/11/15 01:22:29;;;;;;;37.67;20.77;;;;;;;3.58;100.00;96266.84;1035792;28;20261;-73
2021/11/15 01:22:59;;;;;;;32.40;18.80;;;;;;;3.57;100.00;96273.03;1035438;28;20045;-71
2021/11/15 01:23:30;;;;;;;37.95;20.23;;;;;;;3.57;100.00;96268.63;1039472;28;20689;-72
2021/11/15 01:24:00;;;;;;;34.88;18.92;;;;;;;3.58;100.00;96272.03;1038891;28;20054;-72
2021/11/15 01:24:31;;;;;;;35.65;20.38;;;;;;;3.57;100.00;96265.25;1035147;28;20037;-71
2021/11/15 01:25:01;;;;;;;39.63;20.33;;;;;;;3.57;100.00;96265.25;1030976;28;20406;-73
2021/11/15 01:25:32;;;;;;;39.10;21.40;;;;;;;3.51;100.00;96265.06;1027145;28;20031;-73
2021/11/15 01:26:04;;;;;;;36.67;21.00;;;;;;;3.51;100.00;96259.84;1024867;28;20134;-73
2021/11/15 01:26:34;;;;;;;40.22;20.05;;;;;;;3.46;100.00;96254.50;1035295;28;20014;-73
2021/11/15 01:27:05;;;;;;;40.15;20.42;;;;;;;3.59;100.00;96266.63;1030922;28;20270;-74
2021/11/15 01:27:35;;;;;;;36.83;21.00;;;;;;;3.60;100.00;96270.03;1031764;28;20072;-73
2021/11/15 01:28:06;;;;;;;37.10;20.42;;;;;;;3.58;100.00;96265.03;1027032;28;20465;-72
2021/11/15 01:28:36;;;;;;;39.55;21.13;;;;;;;3.56;100.00;96258.47;1030513;28;20050;-74
2021/11/15 01:29:07;;;;;;;35.85;19.65;;;;;;;3.61;100.00;96266.44;1030844;28;20378;-73
2021/11/15 01:29:38;;;;;;;39.15;21.75;;;;;;;3.60;100.00;96267.44;1030360;28;20022;-72
2021/11/15 01:30:10;;;;;;;42.42;21.30;;;;;;;3.53;100.00;96260.47;1023103;28;20043;-73
2021/11/15 01:30:41;;;;;;;40.03;21.00;;;;;;;3.57;100.00;96265.25;1035858;28;20026;-72
2021/11/15 01:31:11;;;;;;;38.97;21.13;;;;;;;3.60;100.00;96270.81;1038799;28;20347;-74
2021/11/15 01:31:42;;;;;;;39.30;20.05;;;;;;;3.57;100.00;96262.66;1031140;28;20041;-73
2021/11/15 01:32:12;;;;;;;43.47;21.27;;;;;;;3.51;100.00;96254.66;1031088;28;20034;-73
2021/11/15 01:32:43;;;;;;;38.88;20.85;;;;;;;3.54;100.00;96269.03;1035036;28;20018;-72
2021/11/15 01:33:13;;;;;;;40.10;21.73;;;;;;;3.59;100.00;96268.41;1035245;28;20026;-72
2021/11/15 01:33:43;;;;;;;37.53;20.05;;;;;;;3.56;100.00;96263.66;1038410;28;20025;-74
2021/11/15 01:34:14;;;;;;;47.03;22.02;;;;;;;3.57;100.00;96267.84;1035318;28;20603;-69
2021/11/15 01:34:44;;;;;;;38.22;21.00;;;;;;;3.50;100.00;96255.69;1042672;28;20021;-72
2021/11/15 01:35:15;;;;;;;35.70;20.23;;;;;;;3.50;100.00;96260.88;1039203;28;20025;-72
2021/11/15 01:35:45;;;;;;;38.58;21.25;;;;;;;3.60;100.00;96259.66;1034640;28;20076;-73
2021/11/15 01:36:16;;;;;;;39.08;20.88;;;;;;;3.57;100.00;96254.88;1036976;28;20025;-73
2021/11/15 01:36:46;;;;;;;39.92;20.50;;;;;;;3.53;100.00;96250.09;1031051;28;20042;-72
2021/11/15 01:37:17;;;;;;;39.65;20.83;;;;;;;3.63;100.00;96265.22;1031287;28;20037;-74
2021/11/15 01:37:47;;;;;;;43.38;21.10;;;;;;;3.57;100.00;96254.88;1034791;28;20030;-72
2021/11/15 01:38:18;;;;;;;37.83;19.92;;;;;;;3.58;100.00;96259.03;1031055;28;20022;-73
2021/11/15 01:38:48;;;;;;;39.25;21.17;;;;;;;3.58;100.00;96259.84;1031011;28;20022;-73
2021/11/15 01:39:19;;;;;;;43.28;21.98;;;;;;;3.60;100.00;96262.25;1031075;28;20435;-72
2021/11/15 01:39:49;;;;;;;40.17;21.27;;;;;;;3.57;100.00;96260.06;1033949;28;20480;-72
2021/11/15 01:40:22;;;;;;;45.78;22.73;;;;;;;3.56;100.00;96255.88;1031215;28;20026;-73
2021/11/15 01:40:52;;;;;;;39.03;20.55;;;;;;;3.58;100.00;96264.25;1030922;28;20509;-72
2021/11/15 01:41:23;;;;;;;41.75;20.98;;;;;;;3.62;100.00;96262.81;1035143;28;20639;-73
2021/11/15 01:41:53;;;;;;;44.72;21.30;;;;;;;3.63;100.00;96261.84;1035577;28;20026;-71
2021/11/15 01:42:24;;;;;;;39.20;21.75;;;;;;;3.62;100.00;96268.00;1035288;28;20029;-72
2021/11/15 01:42:54;;;;;;;40.85;21.83;;;;;;;3.65;100.00;96265.00;1031171;28;20023;-73
2021/11/15 01:43:24;;;;;;;40.35;21.10;;;;;;;3.62;100.00;96262.81;1037812;28;20022;-73
2021/11/15 01:43:55;;;;;;;42.25;21.52;;;;;;;3.65;100.00;96272.78;1034543;28;20037;-74
2021/11/15 01:44:25;;;;;;;39.58;21.65;;;;;;;3.67;100.00;96268.19;1035192;28;20033;-73
2021/11/15 01:44:56;;;;;;;39.00;20.27;;;;;;;3.64;100.00;96266.00;1039228;28;20080;-74
2021/11/15 01:45:30;;;;;;;37.53;20.25;;;;;;;3.63;100.00;96269.63;1035475;28;20037;-75
2021/11/15 01:46:01;;;;;;;44.30;21.95;;;;;;;3.63;100.00;96261.84;1035441;28;20022;-74
2021/11/15 01:46:31;;;;;;;42.45;21.35;;;;;;;3.64;100.00;96264.22;1034946;28;20734;-72
2021/11/15 01:47:02;;;;;;;44.25;22.40;;;;;;;3.65;100.00;96265.00;1034883;28;20021;-72
2021/11/15 01:47:33;;;;;;;41.88;21.30;;;;;;;3.66;100.00;96264.81;1032812;28;20025;-72
2021/11/15 01:48:08;;;;;;;41.58;21.98;;;;;;;3.69;100.00;96264.41;1029475;28;20266;-73
2021/11/15 01:48:38;;;;;;;42.15;23.17;;;;;;;3.68;100.00;96267.19;1032579;28;20010;-72
2021/11/15 01:49:08;;;;;;;38.97;22.08;;;;;;;3.69;100.00;96264.41;1030523;28;20352;-73
2021/11/15 01:49:39;;;;;;;44.67;23.00;;;;;;;3.69;100.00;96263.59;1031098;28;20342;-74
2021/11/15 01:50:10;;;;;;;40.35;22.10;;;;;;;3.69;100.00;96269.59;1034324;28;20029;-73
2021/11/15 01:50:40;;;;;;;50.17;24.58;;;;;;;3.65;100.00;96267.59;1030635;28;20026;-72
2021/11/15 01:51:11;;;;;;;40.88;21.98;;;;;;;3.64;100.00;96268.63;1034559;28;20021;-71
2021/11/15 01:51:41;;;;;;;43.53;22.58;;;;;;;3.65;100.00;96262.41;1034539;28;20025;-73
2021/11/15 01:52:12;;;;;;;43.80;21.73;;;;;;;3.63;100.00;96272.22;1037546;28;20078;-72
2021/11/15 01:52:42;;;;;;;44.03;22.70;;;;;;;3.58;100.00;96261.63;1042801;28;20028;-72
2021/11/15 01:53:13;;;;;;;44.63;22.90;;;;;;;3.61;100.00;96263.81;1034483;28;20029;-73
2021/11/15 01:53:43;;;;;;;44.83;23.85;;;;;;;3.57;100.00;96260.06;1030452;28;20018;-71
2021/11/15 01:54:14;;;;;;;41.33;22.10;;;;;;;3.57;100.00;96257.47;1026353;28;20026;-72
2021/11/15 01:54:44;;;;;;;45.97;23.27;;;;;;;3.60;100.00;96264.84;1026330;28;20014;-72
2021/11/15 01:55:16;;;;;;;41.17;22.60;;;;;;;3.53;100.00;96260.47;1026779;28;20042;-74
2021/11/15 01:55:47;;;;;;;42.22;22.77;;;;;;;3.54;100.00;96258.66;1030448;28;20064;-73
2021/11/15 01:56:17;;;;;;;44.28;22.30;;;;;;;3.60;100.00;96267.44;1022448;28;20326;-73
2021/11/15 01:56:49;;;;;;;41.00;23.75;;;;;;;3.64;100.00;96271.22;1026345;28;20098;-74
2021/11/15 01:57:19;;;;;;;41.63;22.65;;;;;;;3.59;100.00;96258.03;1029635;28;20022;-74
2021/11/15 01:57:50;;;;;;;43.10;22.95;;;;;;;3.58;100.00;96256.44;1034601;28;20645;-73
2021/11/15 01:58:20;;;;;;;49.67;24.02;;;;;;;3.63;100.00;96273.00;1034585;28;20022;-72
2021/11/15 01:58:51;;;;;;;45.10;22.77;;;;;;;3.65;100.00;96270.19;1036365;28;20057;-72
2021/11/15 01:59:21;;;;;;;44.03;22.58;;;;;;;3.59;100.00;96261.44;1034662;28;20022;-73
2021/11/15 01:59:52;;;;;;;44.33;23.30;;;;;;;3.69;100.00;96281.75;1034520;28;20305;-70
2021/11/15 02:00:26;;;;;;;44.05;23.35;;;;;;;3.68;100.00;96269.78;1034162;28;20077;-72
2021/11/15 02:00:58;;;;;;;44.47;23.10;;;;;;;3.69;100.00;96267.00;1031072;28;20485;-70
2021/11/15 02:01:28;;;;;;;47.65;23.15;;;;;;;3.59;100.00;96253.66;1034250;28;20355;-72
2021/11/15 02:01:59;;;;;;;42.85;23.75;;;;;;;3.60;100.00;96259.66;1034400;28;20268;-75
2021/11/15 02:02:29;;;;;;;44.83;23.65;;;;;;;3.61;100.00;96258.63;1033763;28;20018;-73
2021/11/15 02:03:00;;;;;;;47.65;24.20;;;;;;;3.68;100.00;96267.97;1030314;28;20043;-72
2021/11/15 02:03:32;;;;;;;42.42;22.73;;;;;;;3.58;100.00;96251.25;1029624;28;20069;-71
2021/11/15 02:04:02;;;;;;;48.75;24.45;;;;;;;3.65;100.00;96268.38;1025048;28;20035;-71
2021/11/15 02:04:33;;;;;;;44.92;24.65;;;;;;;3.62;100.00;96262.81;1034607;28;20273;-73
2021/11/15 02:05:04;;;;;;;49.85;24.55;;;;;;;3.67;100.00;96266.41;1030721;28;20125;-72
2021/11/15 02:05:34;;;;;;;46.88;23.92;;;;;;;3.65;100.00;96267.59;1030618;28;20525;-72
2021/11/15 02:06:06;;;;;;;43.90;22.30;;;;;;;3.67;100.00;96257.81;1038490;28;20068;-73
2021/11/15 02:06:37;;;;;;;47.28;24.02;;;;;;;3.61;100.00;96256.03;1030120;28;20033;-71
2021/11/15 02:07:07;;;;;;;47.13;26.15;;;;;;;3.65;100.00;96259.81;1034578;28;20308;-73
2021/11/15 02:07:37;;;;;;;60.45;32.47;;;;;;;3.61;100.00;96258.63;1030448;28;20413;-74
2021/11/15 02:08:08;;;;;;;51.85;28.08;;;;;;;3.61;100.00;96251.66;1034512;28;20026;-72
2021/11/15 02:08:39;;;;;;;54.97;27.70;;;;;;;3.58;100.00;96251.25;1034462;28;20030;-73
2021/11/15 02:09:09;;;;;;;52.05;26.55;;;;;;;3.67;100.00;96260.41;1037167;28;20076;-73
2021/11/15 02:09:40;;;;;;;46.15;25.42;;;;;;;3.65;100.00;96267.59;1030492;28;20060;-74
2021/11/15 02:10:10;;;;;;;50.65;25.65;;;;;;;3.66;100.00;96264.03;1030506;28;20405;-74
2021/11/15 02:10:41;;;;;;;51.88;25.23;;;;;;;3.67;100.00;96260.41;1030383;28;20493;-73
2021/11/15 02:11:11;;;;;;;48.55;26.33;;;;;;;3.67;100.00;96265.59;1026174;28;20564;-72
2021/11/15 02:11:42;;;;;;;52.35;28.50;;;;;;;3.63;100.00;96254.06;1026456;28;20030;-72
2021/11/15 02:12:12;;;;;;;46.05;24.98;;;;;;;3.46;100.00;96228.56;1030285;28;20030;-72
2021/11/15 02:12:43;;;;;;;49.33;25.05;;;;;;;3.61;100.00;96249.06;1026611;28;20022;-72
2021/11/15 02:13:14;;;;;;;51.95;27.38;;;;;;;3.62;100.00;96249.84;1030498;28;20665;-73
2021/11/15 02:13:45;;;;;;;61.92;34.33;;;;;;;3.63;100.00;96246.28;1025971;28;20047;-71
2021/11/15 02:14:16;;;;;;;65.97;32.25;;;;;;;3.67;100.00;96250.03;1029663;28;20308;-74
2021/11/15 02:14:46;;;;;;;71.65;36.50;;;;;;;3.62;100.00;96242.88;1034929;28;20268;-72
2021/11/15 02:15:17;;;;;;;57.38;29.38;;;;;;;3.66;100.00;96249.25;1034431;28;20026;-73
2021/11/15 02:15:47;;;;;;;51.42;25.63;;;;;;;3.66;100.00;96251.84;1027827;28;20030;-72
2021/11/15 02:16:18;;;;;;;52.15;24.38;;;;;;;3.58;100.00;96238.28;1030530;28;20049;-73
2021/11/15 02:16:49;;;;;;;46.60;24.30;;;;;;;3.64;100.00;96250.44;1030355;28;20509;-73
2021/11/15 02:17:19;;;;;;;44.05;23.00;;;;;;;3.59;100.00;96243.28;1030451;28;20729;-72
2021/11/15 02:17:50;;;;;;;49.00;25.65;;;;;;;3.67;100.00;96253.44;1030557;28;20261;-74
2021/11/15 02:18:21;;;;;;;51.58;24.35;;;;;;;3.62;100.00;96242.06;1026252;28;20034;-74
2021/11/15 02:18:55;;;;;;;50.45;25.13;;;;;;;3.57;100.00;96239.31;1026372;28;20038;-72
2021/11/15 02:19:25;;;;;;;52.50;26.73;;;;;;;3.63;100.00;96248.88;1030093;28;20663;-72
2021/11/15 02:19:56;;;;;;;54.83;25.95;;;;;;;3.63;100.00;96248.88;1030570;28;20261;-73
2021/11/15 02:20:27;;;;;;;53.28;27.92;;;;;;;3.64;100.00;96248.66;1034883;28;20025;-72
2021/11/15 02:21:02;;;;;;;47.72;27.13;;;;;;;3.57;100.00;96234.13;1032374;28;20018;-73
2021/11/15 02:21:32;;;;;;;46.28;23.77;;;;;;;3.62;100.00;96239.47;1033833;28;20276;-73